sensor_id;sensor_type;location;lat;lon;timestamp;pressure;altitude;pressure_sealevel;temperature;humidity
56142;BME280;42018;48.588;10.836;2022-08-19T00:00:16;96311.56;;;20.67;78.75
56142;BME280;42018;48.588;10.836;2022-08-19T00:03:03;96310.84;;;20.82;77.61
56142;BME280;42018;48.588;10.836;2022-08-19T00:05:48;96310.13;;;20.57;78.98
56142;BME280;42018;48.588;10.836;2022-08-19T00:08:33;96312.38;;;20.55;79.42
56142;BME280;42018;48.588;10.836;2022-08-19T00:11:19;96315.06;;;20.43;79.23
56142;BME280;42018;48.588;10.836;2022-08-19T00:14:07;96321.69;;;20.58;78.87
56142;BME280;42018;48.588;10.836;2022-08-19T00:16:54;96317.09;;;20.58;78.48
56142;BME280;42018;48.588;10.836;2022-08-19T00:19:40;96318.34;;;20.36;80.12
56142;BME280;42018;48.588;10.836;2022-08-19T00:22:25;96312.53;;;20.22;81.14
56142;BME280;42018;48.588;10.836;2022-08-19T00:25:14;96307.72;;;20.03;81.91
56142;BME280;42018;48.588;10.836;2022-08-19T00:28:00;96306.47;;;20.00;82.26
56142;BME280;42018;48.588;10.836;2022-08-19T00:30:46;96309.16;;;20.13;81.81
56142;BME280;42018;48.588;10.836;2022-08-19T00:33:32;96299.59;;;20.27;81.20
56142;BME280;42018;48.588;10.836;2022-08-19T00:36:18;96302.81;;;20.45;80.26
56142;BME280;42018;48.588;10.836;2022-08-19T00:39:04;96299.94;;;20.50;79.28
56142;BME280;42018;48.588;10.836;2022-08-19T00:41:50;96295.44;;;20.54;78.94
56142;BME280;42018;48.588;10.836;2022-08-19T00:44:36;96287.94;;;20.60;78.94
56142;BME280;42018;48.588;10.836;2022-08-19T00:47:21;96288.34;;;20.62;78.64
56142;BME280;42018;48.588;10.836;2022-08-19T00:50:08;96292.16;;;20.49;79.24
56142;BME280;42018;48.588;10.836;2022-08-19T00:52:54;96294.69;;;20.29;80.53
56142;BME280;42018;48.588;10.836;2022-08-19T00:55:42;96297.84;;;20.07;81.45
56142;BME280;42018;48.588;10.836;2022-08-19T00:58:33;96295.91;;;19.71;83.73
56142;BME280;42018;48.588;10.836;2022-08-19T01:01:19;96301.19;;;19.92;82.61
56142;BME280;42018;48.588;10.836;2022-08-19T01:04:04;96292.25;;;20.00;82.37
56142;BME280;42018;48.588;10.836;2022-08-19T01:06:50;96298.41;;;20.00;81.65
56142;BME280;42018;48.588;10.836;2022-08-19T01:09:35;96290.34;;;20.00;81.44
56142;BME280;42018;48.588;10.836;2022-08-19T01:12:21;96298.03;;;20.26;80.00
56142;BME280;42018;48.588;10.836;2022-08-19T01:15:09;96295.13;;;20.31;79.33
56142;BME280;42018;48.588;10.836;2022-08-19T01:17:59;96295.66;;;20.37;79.03
56142;BME280;42018;48.588;10.836;2022-08-19T01:20:46;96299.59;;;20.40;78.92
56142;BME280;42018;48.588;10.836;2022-08-19T01:23:32;96296.38;;;20.22;79.62
56142;BME280;42018;48.588;10.836;2022-08-19T01:26:29;96293.91;;;19.80;81.45
56142;BME280;42018;48.588;10.836;2022-08-19T01:29:15;96296.84;;;19.87;81.64
56142;BME280;42018;48.588;10.836;2022-08-19T01:32:00;96301.84;;;20.13;79.80
56142;BME280;42018;48.588;10.836;2022-08-19T01:34:46;96301.31;;;19.95;80.86
56142;BME280;42018;48.588;10.836;2022-08-19T01:37:42;96298.38;;;20.13;79.49
56142;BME280;42018;48.588;10.836;2022-08-19T01:40:32;96300.53;;;20.07;79.82
56142;BME280;42018;48.588;10.836;2022-08-19T01:43:18;96306.13;;;20.02;80.60
56142;BME280;42018;48.588;10.836;2022-08-19T01:46:04;96321.38;;;20.10;80.31
56142;BME280;42018;48.588;10.836;2022-08-19T01:48:50;96325.31;;;20.00;80.83
56142;BME280;42018;48.588;10.836;2022-08-19T01:51:35;96327.09;;;20.08;80.33
56142;BME280;42018;48.588;10.836;2022-08-19T01:54:23;96328.88;;;19.92;80.95
56142;BME280;42018;48.588;10.836;2022-08-19T01:57:11;96320.59;;;19.97;80.89
56142;BME280;42018;48.588;10.836;2022-08-19T01:59:57;96333.47;;;20.04;80.05
56142;BME280;42018;48.588;10.836;2022-08-19T02:02:43;96324.28;;;19.93;80.21
56142;BME280;42018;48.588;10.836;2022-08-19T02:05:28;96333.34;;;19.76;81.08
56142;BME280;42018;48.588;10.836;2022-08-19T02:08:14;96340.44;;;19.59;81.91
56142;BME280;42018;48.588;10.836;2022-08-19T02:10:59;96346.56;;;19.69;82.71
56142;BME280;42018;48.588;10.836;2022-08-19T02:13:45;96345.66;;;19.77;81.83
56142;BME280;42018;48.588;10.836;2022-08-19T02:16:30;96345.50;;;19.61;82.09
56142;BME280;42018;48.588;10.836;2022-08-19T02:19:16;96343.97;;;19.84;81.33
56142;BME280;42018;48.588;10.836;2022-08-19T02:22:01;96328.41;;;19.78;81.99
56142;BME280;42018;48.588;10.836;2022-08-19T02:24:46;96326.97;;;20.05;80.12
56142;BME280;42018;48.588;10.836;2022-08-19T02:27:33;96322.16;;;19.98;81.16
56142;BME280;42018;48.588;10.836;2022-08-19T02:30:19;96314.78;;;20.07;80.68
56142;BME280;42018;48.588;10.836;2022-08-19T02:33:05;96316.66;;;19.82;81.87
56142;BME280;42018;48.588;10.836;2022-08-19T02:35:50;96320.56;;;19.85;81.19
56142;BME280;42018;48.588;10.836;2022-08-19T02:38:36;96321.69;;;19.84;82.19
56142;BME280;42018;48.588;10.836;2022-08-19T02:41:25;96312.97;;;19.99;80.49
56142;BME280;42018;48.588;10.836;2022-08-19T02:44:11;96309.03;;;20.09;80.27
56142;BME280;42018;48.588;10.836;2022-08-19T02:46:57;96314.53;;;20.00;80.39
56142;BME280;42018;48.588;10.836;2022-08-19T02:49:42;96322.38;;;19.81;80.64
56142;BME280;42018;48.588;10.836;2022-08-19T02:52:28;96320.25;;;19.99;80.03
56142;BME280;42018;48.588;10.836;2022-08-19T02:55:13;96320.34;;;20.02;80.02
56142;BME280;42018;48.588;10.836;2022-08-19T02:58:00;96316.56;;;20.03;79.61
56142;BME280;42018;48.588;10.836;2022-08-19T03:00:52;96321.59;;;20.05;79.85
56142;BME280;42018;48.588;10.836;2022-08-19T03:03:37;96317.09;;;20.09;79.56
56142;BME280;42018;48.588;10.836;2022-08-19T03:06:23;96318.81;;;20.14;79.42
56142;BME280;42018;48.588;10.836;2022-08-19T03:09:09;96320.56;;;20.09;79.61
56142;BME280;42018;48.588;10.836;2022-08-19T03:11:55;96331.13;;;20.02;79.96
56142;BME280;42018;48.588;10.836;2022-08-19T03:14:40;96330.00;;;20.16;79.15
56142;BME280;42018;48.588;10.836;2022-08-19T03:17:26;96326.06;;;20.25;78.69
56142;BME280;42018;48.588;10.836;2022-08-19T03:20:11;96317.66;;;20.27;78.80
56142;BME280;42018;48.588;10.836;2022-08-19T03:22:57;96320.25;;;20.23;78.37
56142;BME280;42018;48.588;10.836;2022-08-19T03:25:45;96320.13;;;20.32;77.88
56142;BME280;42018;48.588;10.836;2022-08-19T03:28:32;96316.97;;;20.42;77.31
56142;BME280;42018;48.588;10.836;2022-08-19T03:31:20;96321.69;;;20.33;77.77
56142;BME280;42018;48.588;10.836;2022-08-19T03:34:15;96312.50;;;20.34;77.50
56142;BME280;42018;48.588;10.836;2022-08-19T03:37:08;96313.06;;;20.40;76.78
56142;BME280;42018;48.588;10.836;2022-08-19T03:39:54;96305.75;;;20.52;76.54
56142;BME280;42018;48.588;10.836;2022-08-19T03:42:40;96310.13;;;20.57;76.64
56142;BME280;42018;48.588;10.836;2022-08-19T03:45:27;96315.72;;;20.64;75.67
56142;BME280;42018;48.588;10.836;2022-08-19T03:48:12;96317.59;;;20.76;74.88
56142;BME280;42018;48.588;10.836;2022-08-19T03:50:58;96313.66;;;20.86;74.73
56142;BME280;42018;48.588;10.836;2022-08-19T03:53:44;96313.66;;;20.86;74.21
56142;BME280;42018;48.588;10.836;2022-08-19T03:56:30;96307.13;;;20.87;74.41
56142;BME280;42018;48.588;10.836;2022-08-19T03:59:26;96301.63;;;20.83;74.38
56142;BME280;42018;48.588;10.836;2022-08-19T04:02:12;96313.09;;;20.80;75.05
56142;BME280;42018;48.588;10.836;2022-08-19T04:04:57;96311.63;;;20.83;75.07
56142;BME280;42018;48.588;10.836;2022-08-19T04:07:43;96311.72;;;20.86;74.84
56142;BME280;42018;48.588;10.836;2022-08-19T04:10:28;96323.63;;;20.85;74.13
56142;BME280;42018;48.588;10.836;2022-08-19T04:13:18;96322.41;;;20.83;74.57
56142;BME280;42018;48.588;10.836;2022-08-19T04:16:04;96323.34;;;20.74;75.08
56142;BME280;42018;48.588;10.836;2022-08-19T04:18:50;96332.09;;;20.71;74.70
56142;BME280;42018;48.588;10.836;2022-08-19T04:21:35;96329.41;;;20.71;74.62
56142;BME280;42018;48.588;10.836;2022-08-19T04:24:22;96330.06;;;20.68;75.44
56142;BME280;42018;48.588;10.836;2022-08-19T04:27:07;96331.88;;;20.64;75.62
56142;BME280;42018;48.588;10.836;2022-08-19T04:29:53;96329.94;;;20.77;74.82
56142;BME280;42018;48.588;10.836;2022-08-19T04:32:38;96330.59;;;20.74;75.17
56142;BME280;42018;48.588;10.836;2022-08-19T04:35:24;96342.06;;;20.71;75.14
56142;BME280;42018;48.588;10.836;2022-08-19T04:38:10;96337.00;;;20.82;74.42
56142;BME280;42018;48.588;10.836;2022-08-19T04:40:56;96338.88;;;20.81;74.60
56142;BME280;42018;48.588;10.836;2022-08-19T04:44:00;96340.47;;;20.82;74.28
56142;BME280;42018;48.588;10.836;2022-08-19T04:46:48;96342.34;;;20.94;73.29
56142;BME280;42018;48.588;10.836;2022-08-19T04:49:34;96355.22;;;21.00;72.63
56142;BME280;42018;48.588;10.836;2022-08-19T04:52:20;96355.31;;;21.04;72.52
56142;BME280;42018;48.588;10.836;2022-08-19T04:55:06;96361.50;;;21.04;72.35
56142;BME280;42018;48.588;10.836;2022-08-19T04:57:51;96361.06;;;21.02;72.86
56142;BME280;42018;48.588;10.836;2022-08-19T05:00:38;96356.00;;;21.01;73.14
56142;BME280;42018;48.588;10.836;2022-08-19T05:03:24;96359.06;;;20.99;73.14
56142;BME280;42018;48.588;10.836;2022-08-19T05:06:12;96368.22;;;20.98;73.11
56142;BME280;42018;48.588;10.836;2022-08-19T05:09:00;96365.69;;;20.90;73.79
56142;BME280;42018;48.588;10.836;2022-08-19T05:11:46;96373.53;;;20.95;72.99
56142;BME280;42018;48.588;10.836;2022-08-19T05:14:31;96368.94;;;20.95;73.91
56142;BME280;42018;48.588;10.836;2022-08-19T05:17:17;96374.75;;;20.97;74.03
56142;BME280;42018;48.588;10.836;2022-08-19T05:20:05;96374.75;;;20.97;74.13
56142;BME280;42018;48.588;10.836;2022-08-19T05:23:10;96379.47;;;20.88;74.67
56142;BME280;42018;48.588;10.836;2022-08-19T05:25:56;96376.38;;;20.86;74.43
56142;BME280;42018;48.588;10.836;2022-08-19T05:28:41;96378.13;;;20.94;74.57
56142;BME280;42018;48.588;10.836;2022-08-19T05:31:26;96380.25;;;21.01;74.21
56142;BME280;42018;48.588;10.836;2022-08-19T05:34:12;96386.00;;;20.99;74.59
56142;BME280;42018;48.588;10.836;2022-08-19T05:36:59;96382.16;;;21.00;74.00
56142;BME280;42018;48.588;10.836;2022-08-19T05:39:44;96377.03;;;20.95;74.00
56142;BME280;42018;48.588;10.836;2022-08-19T05:42:30;96380.28;;;20.89;74.13
56142;BME280;42018;48.588;10.836;2022-08-19T05:45:15;96379.94;;;20.90;73.81
56142;BME280;42018;48.588;10.836;2022-08-19T05:48:01;96387.25;;;20.90;74.29
56142;BME280;42018;48.588;10.836;2022-08-19T05:50:46;96382.53;;;20.87;74.58
56142;BME280;42018;48.588;10.836;2022-08-19T05:53:35;96374.81;;;20.85;74.15
56142;BME280;42018;48.588;10.836;2022-08-19T05:56:20;96370.75;;;20.79;74.41
56142;BME280;42018;48.588;10.836;2022-08-19T05:59:08;96363.56;;;20.83;74.29
56142;BME280;42018;48.588;10.836;2022-08-19T06:01:56;96371.81;;;20.62;75.19
56142;BME280;42018;48.588;10.836;2022-08-19T06:04:42;96367.88;;;20.60;75.45
56142;BME280;42018;48.588;10.836;2022-08-19T06:07:30;96358.59;;;20.57;75.14
56142;BME280;42018;48.588;10.836;2022-08-19T06:10:15;96369.47;;;20.61;75.45
56142;BME280;42018;48.588;10.836;2022-08-19T06:13:01;96357.00;;;20.56;75.46
56142;BME280;42018;48.588;10.836;2022-08-19T06:15:46;96364.19;;;20.52;75.32
56142;BME280;42018;48.588;10.836;2022-08-19T06:18:32;96362.84;;;20.46;75.99
56142;BME280;42018;48.588;10.836;2022-08-19T06:21:20;96361.81;;;20.38;75.91
56142;BME280;42018;48.588;10.836;2022-08-19T06:24:08;96368.00;;;20.39;75.77
56142;BME280;42018;48.588;10.836;2022-08-19T06:26:56;96372.81;;;20.33;76.06
56142;BME280;42018;48.588;10.836;2022-08-19T06:29:42;96374.94;;;20.27;76.34
56142;BME280;42018;48.588;10.836;2022-08-19T06:32:27;96370.91;;;20.21;76.91
56142;BME280;42018;48.588;10.836;2022-08-19T06:35:13;96369.91;;;20.26;76.13
56142;BME280;42018;48.588;10.836;2022-08-19T06:37:59;96380.00;;;20.29;76.54
56142;BME280;42018;48.588;10.836;2022-08-19T06:40:45;96385.13;;;20.34;75.88
56142;BME280;42018;48.588;10.836;2022-08-19T06:43:30;96387.72;;;20.30;75.97
56142;BME280;42018;48.588;10.836;2022-08-19T06:46:17;96388.38;;;20.27;76.15
56142;BME280;42018;48.588;10.836;2022-08-19T06:49:05;96387.06;;;20.21;76.37
56142;BME280;42018;48.588;10.836;2022-08-19T06:51:51;96388.50;;;20.19;76.84
56142;BME280;42018;48.588;10.836;2022-08-19T06:54:37;96392.31;;;20.30;76.17
56142;BME280;42018;48.588;10.836;2022-08-19T06:57:23;96400.72;;;20.28;76.58
56142;BME280;42018;48.588;10.836;2022-08-19T07:00:09;96398.38;;;20.15;77.24
56142;BME280;42018;48.588;10.836;2022-08-19T07:02:58;96411.16;;;20.18;76.55
56142;BME280;42018;48.588;10.836;2022-08-19T07:05:45;96412.38;;;20.20;77.41
56142;BME280;42018;48.588;10.836;2022-08-19T07:08:31;96413.84;;;20.18;77.36
56142;BME280;42018;48.588;10.836;2022-08-19T07:11:17;96405.44;;;20.19;77.36
56142;BME280;42018;48.588;10.836;2022-08-19T07:14:04;96400.59;;;20.13;78.03
56142;BME280;42018;48.588;10.836;2022-08-19T07:16:52;96405.44;;;20.19;77.55
56142;BME280;42018;48.588;10.836;2022-08-19T07:19:40;96410.03;;;20.31;76.98
56142;BME280;42018;48.588;10.836;2022-08-19T07:22:28;96404.44;;;20.36;77.08
56142;BME280;42018;48.588;10.836;2022-08-19T07:25:13;96394.09;;;20.38;77.22
56142;BME280;42018;48.588;10.836;2022-08-19T07:27:59;96404.75;;;20.47;76.57
56142;BME280;42018;48.588;10.836;2022-08-19T07:30:44;96396.94;;;20.54;77.02
56142;BME280;42018;48.588;10.836;2022-08-19T07:33:30;96401.19;;;20.55;76.39
56142;BME280;42018;48.588;10.836;2022-08-19T07:36:20;96394.78;;;20.47;76.78
56142;BME280;42018;48.588;10.836;2022-08-19T07:39:11;96404.41;;;20.48;76.76
56142;BME280;42018;48.588;10.836;2022-08-19T07:42:00;96400.41;;;20.54;77.21
56142;BME280;42018;48.588;10.836;2022-08-19T07:44:46;96398.25;;;20.48;77.50
56142;BME280;42018;48.588;10.836;2022-08-19T07:47:31;96393.47;;;20.53;77.65
56142;BME280;42018;48.588;10.836;2022-08-19T07:50:19;96388.75;;;20.50;77.27
56142;BME280;42018;48.588;10.836;2022-08-19T07:53:05;96391.97;;;20.44;78.24
56142;BME280;42018;48.588;10.836;2022-08-19T07:55:51;96395.22;;;20.37;78.44
56142;BME280;42018;48.588;10.836;2022-08-19T07:58:39;96404.97;;;20.42;77.96
56142;BME280;42018;48.588;10.836;2022-08-19T08:01:26;96406.69;;;20.46;78.03
56142;BME280;42018;48.588;10.836;2022-08-19T08:04:13;96408.94;;;20.56;77.48
56142;BME280;42018;48.588;10.836;2022-08-19T08:07:17;96402.22;;;20.50;77.69
56142;BME280;42018;48.588;10.836;2022-08-19T08:10:21;96406.94;;;20.53;78.46
56142;BME280;42018;48.588;10.836;2022-08-19T08:13:07;96403.44;;;20.65;77.48
56142;BME280;42018;48.588;10.836;2022-08-19T08:15:53;96404.56;;;20.64;77.53
56142;BME280;42018;48.588;10.836;2022-08-19T08:18:38;96408.69;;;20.74;77.54
56142;BME280;42018;48.588;10.836;2022-08-19T08:21:26;96399.03;;;20.73;77.81
56142;BME280;42018;48.588;10.836;2022-08-19T08:24:12;96400.94;;;20.72;77.43
56142;BME280;42018;48.588;10.836;2022-08-19T08:26:59;96397.84;;;20.58;78.16
56142;BME280;42018;48.588;10.836;2022-08-19T08:29:44;96401.31;;;20.59;77.54
56142;BME280;42018;48.588;10.836;2022-08-19T08:32:30;96399.19;;;20.52;78.21
56142;BME280;42018;48.588;10.836;2022-08-19T08:35:18;96402.88;;;20.72;78.14
56142;BME280;42018;48.588;10.836;2022-08-19T08:38:04;96406.00;;;20.74;78.62
56142;BME280;42018;48.588;10.836;2022-08-19T08:40:53;96407.91;;;20.73;78.89
56142;BME280;42018;48.588;10.836;2022-08-19T08:43:51;96401.63;;;20.69;78.94
56142;BME280;42018;48.588;10.836;2022-08-19T08:46:50;96404.91;;;20.50;78.98
56142;BME280;42018;48.588;10.836;2022-08-19T08:49:46;96401.53;;;20.53;79.30
56142;BME280;42018;48.588;10.836;2022-08-19T08:52:36;96408.84;;;20.53;79.79
56142;BME280;42018;48.588;10.836;2022-08-19T08:55:26;96409.94;;;20.52;79.70
56142;BME280;42018;48.588;10.836;2022-08-19T08:58:17;96400.41;;;20.42;79.62
56142;BME280;42018;48.588;10.836;2022-08-19T09:01:05;96407.91;;;20.37;80.60
56142;BME280;42018;48.588;10.836;2022-08-19T09:03:51;96407.78;;;20.45;80.07
56142;BME280;42018;48.588;10.836;2022-08-19T09:06:51;96406.66;;;20.34;79.60
56142;BME280;42018;48.588;10.836;2022-08-19T09:09:42;96406.00;;;20.25;81.46
56142;BME280;42018;48.588;10.836;2022-08-19T09:15:32;96415.88;;;20.33;79.48
56142;BME280;42018;48.588;10.836;2022-08-19T09:18:20;96406.22;;;20.20;80.89
56142;BME280;42018;48.588;10.836;2022-08-19T09:21:05;96408.22;;;20.11;81.30
56142;BME280;42018;48.588;10.836;2022-08-19T09:23:53;96413.50;;;20.19;81.58
56142;BME280;42018;48.588;10.836;2022-08-19T09:26:39;96421.72;;;20.35;80.44
56142;BME280;42018;48.588;10.836;2022-08-19T09:29:24;96426.38;;;20.38;80.42
56142;BME280;42018;48.588;10.836;2022-08-19T09:32:09;96425.41;;;20.55;79.78
56142;BME280;42018;48.588;10.836;2022-08-19T09:34:55;96417.81;;;20.57;79.06
56142;BME280;42018;48.588;10.836;2022-08-19T09:37:43;96416.44;;;20.63;79.50
56142;BME280;42018;48.588;10.836;2022-08-19T09:40:30;96421.16;;;20.54;79.28
56142;BME280;42018;48.588;10.836;2022-08-19T09:43:15;96418.78;;;20.52;79.83
56142;BME280;42018;48.588;10.836;2022-08-19T09:46:04;96421.94;;;20.54;79.86
56142;BME280;42018;48.588;10.836;2022-08-19T09:48:51;96420.44;;;20.20;80.55
56142;BME280;42018;48.588;10.836;2022-08-19T09:51:37;96416.09;;;20.52;79.88
56142;BME280;42018;48.588;10.836;2022-08-19T09:54:23;96417.34;;;20.55;79.40
56142;BME280;42018;48.588;10.836;2022-08-19T09:57:09;96421.59;;;20.56;79.53
56142;BME280;42018;48.588;10.836;2022-08-19T09:59:54;96425.16;;;20.48;79.76
56142;BME280;42018;48.588;10.836;2022-08-19T10:02:39;96431.47;;;20.52;80.08
56142;BME280;42018;48.588;10.836;2022-08-19T10:05:25;96430.38;;;20.53;79.27
56142;BME280;42018;48.588;10.836;2022-08-19T10:08:33;96433.38;;;20.39;79.60
56142;BME280;42018;48.588;10.836;2022-08-19T10:11:20;96426.09;;;20.52;79.62
56142;BME280;42018;48.588;10.836;2022-08-19T10:14:06;96421.94;;;20.54;79.55
56142;BME280;42018;48.588;10.836;2022-08-19T10:16:52;96425.06;;;20.44;80.22
56142;BME280;42018;48.588;10.836;2022-08-19T10:19:37;96430.47;;;20.56;79.77
56142;BME280;42018;48.588;10.836;2022-08-19T10:22:23;96429.31;;;20.45;79.71
56142;BME280;42018;48.588;10.836;2022-08-19T10:25:08;96434.91;;;20.40;79.62
56142;BME280;42018;48.588;10.836;2022-08-19T10:27:54;96437.03;;;20.34;80.31
56142;BME280;42018;48.588;10.836;2022-08-19T10:30:39;96430.91;;;20.46;79.92
56142;BME280;42018;48.588;10.836;2022-08-19T10:33:25;96435.16;;;20.35;80.25
56142;BME280;42018;48.588;10.836;2022-08-19T10:36:17;96422.47;;;20.23;80.69
56142;BME280;42018;48.588;10.836;2022-08-19T10:39:06;96429.56;;;20.28;81.30
56142;BME280;42018;48.588;10.836;2022-08-19T10:41:52;96430.88;;;20.34;81.07
56142;BME280;42018;48.588;10.836;2022-08-19T10:44:38;96431.00;;;20.38;80.43
56142;BME280;42018;48.588;10.836;2022-08-19T10:47:23;96433.09;;;20.20;81.48
56142;BME280;42018;48.588;10.836;2022-08-19T10:50:08;96431.31;;;20.24;81.53
56142;BME280;42018;48.588;10.836;2022-08-19T10:53:12;96429.31;;;20.21;81.68
56142;BME280;42018;48.588;10.836;2022-08-19T10:55:58;96423.13;;;20.08;82.13
56142;BME280;42018;48.588;10.836;2022-08-19T10:59:03;96429.06;;;20.01;82.91
56142;BME280;42018;48.588;10.836;2022-08-19T11:01:50;96435.44;;;19.97;82.96
56142;BME280;42018;48.588;10.836;2022-08-19T11:04:39;96424.81;;;20.00;83.02
56142;BME280;42018;48.588;10.836;2022-08-19T11:07:25;96422.22;;;20.04;82.88
56142;BME280;42018;48.588;10.836;2022-08-19T11:10:14;96431.97;;;20.08;82.51
56142;BME280;42018;48.588;10.836;2022-08-19T11:12:59;96426.38;;;20.01;82.49
56142;BME280;42018;48.588;10.836;2022-08-19T11:15:45;96426.66;;;19.88;83.36
56142;BME280;42018;48.588;10.836;2022-08-19T11:18:34;96428.94;;;19.98;83.44
56142;BME280;42018;48.588;10.836;2022-08-19T11:21:24;96437.03;;;20.10;82.59
56142;BME280;42018;48.588;10.836;2022-08-19T11:24:13;96436.22;;;20.09;82.63
56142;BME280;42018;48.588;10.836;2022-08-19T11:27:03;96439.63;;;20.06;82.37
56142;BME280;42018;48.588;10.836;2022-08-19T11:29:50;96435.19;;;19.90;83.47
56142;BME280;42018;48.588;10.836;2022-08-19T11:32:37;96437.09;;;19.89;83.74
56142;BME280;42018;48.588;10.836;2022-08-19T11:35:23;96439.78;;;19.89;83.82
56142;BME280;42018;48.588;10.836;2022-08-19T11:38:08;96438.19;;;19.88;84.14
56142;BME280;42018;48.588;10.836;2022-08-19T11:41:02;96438.19;;;19.88;83.92
56142;BME280;42018;48.588;10.836;2022-08-19T11:43:49;96438.66;;;19.90;83.77
56142;BME280;42018;48.588;10.836;2022-08-19T11:46:36;96442.19;;;20.03;82.87
56142;BME280;42018;48.588;10.836;2022-08-19T11:49:22;96439.81;;;20.01;83.00
56142;BME280;42018;48.588;10.836;2022-08-19T11:52:08;96437.34;;;19.96;83.25
56142;BME280;42018;48.588;10.836;2022-08-19T11:54:54;96442.72;;;19.96;83.38
56142;BME280;42018;48.588;10.836;2022-08-19T11:57:39;96449.88;;;19.92;83.52
56142;BME280;42018;48.588;10.836;2022-08-19T12:00:26;96452.13;;;19.90;83.45
56142;BME280;42018;48.588;10.836;2022-08-19T12:03:12;96448.53;;;19.86;84.00
56142;BME280;42018;48.588;10.836;2022-08-19T12:05:58;96449.88;;;19.92;83.84
56142;BME280;42018;48.588;10.836;2022-08-19T12:08:44;96459.84;;;19.92;83.63
56142;BME280;42018;48.588;10.836;2022-08-19T12:11:29;96471.34;;;19.80;84.05
56142;BME280;42018;48.588;10.836;2022-08-19T12:14:15;96474.50;;;19.82;84.75
56142;BME280;42018;48.588;10.836;2022-08-19T12:17:01;96472.78;;;19.77;84.98
56142;BME280;42018;48.588;10.836;2022-08-19T12:19:49;96470.88;;;19.78;84.80
56142;BME280;42018;48.588;10.836;2022-08-19T12:22:35;96474.69;;;19.77;84.81
56142;BME280;42018;48.588;10.836;2022-08-19T12:25:21;96480.66;;;19.61;85.96
56142;BME280;42018;48.588;10.836;2022-08-19T12:28:06;96477.38;;;19.56;86.71
56142;BME280;42018;48.588;10.836;2022-08-19T12:30:51;96479.03;;;19.69;85.62
56142;BME280;42018;48.588;10.836;2022-08-19T12:33:38;96483.75;;;19.72;85.52
56142;BME280;42018;48.588;10.836;2022-08-19T12:36:24;96487.34;;;19.76;85.40
56142;BME280;42018;48.588;10.836;2022-08-19T12:39:09;96485.78;;;19.75;85.74
56142;BME280;42018;48.588;10.836;2022-08-19T12:41:55;96485.00;;;19.75;85.38
56142;BME280;42018;48.588;10.836;2022-08-19T12:44:42;96492.47;;;19.69;85.03
56142;BME280;42018;48.588;10.836;2022-08-19T12:47:27;96493.13;;;19.66;85.68
56142;BME280;42018;48.588;10.836;2022-08-19T12:50:13;96492.19;;;19.62;86.36
56142;BME280;42018;48.588;10.836;2022-08-19T12:52:58;96482.88;;;19.59;86.71
56142;BME280;42018;48.588;10.836;2022-08-19T12:55:44;96485.41;;;19.65;86.02
56142;BME280;42018;48.588;10.836;2022-08-19T12:58:29;96478.44;;;19.64;86.14
56142;BME280;42018;48.588;10.836;2022-08-19T13:01:17;96474.50;;;19.61;86.38
56142;BME280;42018;48.588;10.836;2022-08-19T13:04:02;96474.50;;;19.61;86.24
56142;BME280;42018;48.588;10.836;2022-08-19T13:06:49;96479.50;;;19.50;86.76
56142;BME280;42018;48.588;10.836;2022-08-19T13:09:34;96471.09;;;19.52;87.25
56142;BME280;42018;48.588;10.836;2022-08-19T13:12:20;96476.22;;;19.66;85.98
56142;BME280;42018;48.588;10.836;2022-08-19T13:15:06;96487.47;;;19.59;86.32
56142;BME280;42018;48.588;10.836;2022-08-19T13:17:53;96486.44;;;19.51;86.43
56142;BME280;42018;48.588;10.836;2022-08-19T13:20:40;96487.69;;;19.33;87.19
56142;BME280;42018;48.588;10.836;2022-08-19T13:23:28;96484.53;;;19.31;87.98
56142;BME280;42018;48.588;10.836;2022-08-19T13:26:14;96492.84;;;19.38;87.80
56142;BME280;42018;48.588;10.836;2022-08-19T13:29:00;96489.47;;;19.29;88.40
56142;BME280;42018;48.588;10.836;2022-08-19T13:32:04;96487.31;;;19.43;87.32
56142;BME280;42018;48.588;10.836;2022-08-19T13:35:08;96493.75;;;19.42;87.03
56142;BME280;42018;48.588;10.836;2022-08-19T13:37:54;96491.56;;;19.44;86.74
56142;BME280;42018;48.588;10.836;2022-08-19T13:40:40;96480.47;;;19.46;86.22
56142;BME280;42018;48.588;10.836;2022-08-19T13:43:26;96484.63;;;19.43;86.44
56142;BME280;42018;48.588;10.836;2022-08-19T13:46:12;96475.91;;;19.46;86.74
56142;BME280;42018;48.588;10.836;2022-08-19T13:48:59;96483.88;;;19.34;87.12
56142;BME280;42018;48.588;10.836;2022-08-19T13:51:44;96480.34;;;19.42;87.07
56142;BME280;42018;48.588;10.836;2022-08-19T13:54:30;96477.47;;;19.47;85.97
56142;BME280;42018;48.588;10.836;2022-08-19T13:57:15;96481.47;;;19.41;86.38
56142;BME280;42018;48.588;10.836;2022-08-19T14:00:02;96485.44;;;19.35;87.52
56142;BME280;42018;48.588;10.836;2022-08-19T14:02:51;96497.53;;;19.29;87.25
56142;BME280;42018;48.588;10.836;2022-08-19T14:05:37;96488.34;;;19.30;87.93
56142;BME280;42018;48.588;10.836;2022-08-19T14:08:23;96491.41;;;19.20;87.71
56142;BME280;42018;48.588;10.836;2022-08-19T14:11:08;96489.50;;;19.20;88.61
56142;BME280;42018;48.588;10.836;2022-08-19T14:13:54;96490.91;;;19.26;88.78
56142;BME280;42018;48.588;10.836;2022-08-19T14:16:39;96489.91;;;19.31;87.84
56142;BME280;42018;48.588;10.836;2022-08-19T14:19:25;96491.69;;;19.27;87.88
56142;BME280;42018;48.588;10.836;2022-08-19T14:22:10;96482.31;;;19.33;87.67
56142;BME280;42018;48.588;10.836;2022-08-19T14:24:57;96481.13;;;19.22;88.20
56142;BME280;42018;48.588;10.836;2022-08-19T14:27:42;96485.00;;;19.33;87.82
56142;BME280;42018;48.588;10.836;2022-08-19T14:30:30;96482.25;;;19.42;87.18
56142;BME280;42018;48.588;10.836;2022-08-19T14:33:16;96481.47;;;19.41;87.44
56142;BME280;42018;48.588;10.836;2022-08-19T14:36:02;96474.91;;;19.30;87.64